createdAt,value
2018-06-17T05:34:28.572Z,30.5
2018-06-17T05:35:18.963Z,30.5
2018-06-17T05:36:08.477Z,30.4
2018-06-17T05:36:58.532Z,25.3
2018-06-17T05:37:48.845Z,28.4
2018-06-17T05:38:38.945Z,32.1
2018-06-17T05:39:28.735Z,32.1
2018-06-17T05:40:19.335Z,30.1
2018-06-17T05:41:09.068Z,28
2018-06-17T05:41:59.003Z,27.1
2018-06-17T05:42:49.048Z,26.8
2018-06-17T05:43:39.664Z,26.6
2018-06-17T05:44:28.924Z,26.6
2018-06-17T05:45:19.706Z,26.6
2018-06-17T05:46:09.512Z,26.6
2018-06-17T05:46:59.308Z,26.6
2018-06-17T05:47:49.967Z,26.6
2018-06-17T05:48:39.975Z,26.7
2018-06-17T05:49:29.993Z,26.7
2018-06-17T05:50:20.083Z,26.8
2018-06-17T05:51:09.927Z,26.9
2018-06-17T05:52:00.163Z,26.9
2018-06-17T05:52:50.260Z,27
2018-06-17T05:53:40.348Z,27.1
2018-06-17T05:54:30.398Z,27.2
2018-06-17T05:55:20.426Z,27.3
2018-06-17T05:56:10.516Z,27.3
2018-06-17T05:57:00.329Z,27.4
2018-06-17T05:57:50.658Z,27.4
2018-06-17T05:58:40.798Z,27.5
2018-06-17T05:59:30.246Z,27.6
2018-06-17T06:00:20.884Z,27.6
2018-06-17T06:01:10.924Z,27.7
2018-06-17T06:02:00.943Z,27.8
2018-06-17T06:02:51.101Z,26.8
2018-06-17T06:03:40.534Z,29.1
2018-06-17T06:04:30.691Z,33.6
2018-06-17T06:05:21.172Z,34.8
2018-06-17T06:06:11.056Z,34.1
2018-06-17T06:07:01.121Z,32.6
2018-06-17T06:07:50.877Z,31.3
2018-06-17T06:08:41.484Z,30.7
2018-06-17T06:09:30.771Z,30.9
2018-06-17T06:10:21.524Z,31.5
2018-06-17T06:11:11.098Z,32.2
2018-06-17T06:12:00.719Z,32.4
2018-06-17T06:12:51.238Z,32.1
2018-06-17T06:13:41.088Z,31.6
2018-06-17T06:14:31.463Z,31.2
2018-06-17T06:15:20.703Z,30.9
2018-06-17T06:16:11.609Z,30.9
2018-06-17T06:17:01.130Z,30.8
2018-06-17T06:17:51.655Z,30.8
2018-06-17T06:18:40.871Z,30.8
2018-06-17T06:19:31.862Z,30.6
2018-06-17T06:20:21.672Z,30.4
2018-06-17T06:21:11.669Z,30.3
2018-06-17T06:22:01.201Z,30.3
2018-06-17T06:22:52.097Z,30.3
2018-06-17T06:23:42.314Z,30.3
2018-06-17T06:24:31.890Z,30.3
2018-06-17T06:25:21.352Z,30.3
2018-06-17T06:26:12.275Z,30.3
2018-06-17T06:27:02.047Z,30.4
2018-06-17T06:27:52.722Z,30.4
2018-06-17T06:28:42.195Z,30.6
2018-06-17T06:29:32.847Z,30.8
2018-06-17T06:30:22.880Z,31
2018-06-17T06:31:12.980Z,31.1
2018-06-17T06:32:03.284Z,31.4
2018-06-17T06:32:52.766Z,31.6
2018-06-17T06:33:43.371Z,32.1
2018-06-17T06:34:33.458Z,32.4
2018-06-17T06:35:23.204Z,32.4
2018-06-17T06:36:13.601Z,32.3
2018-06-17T06:37:02.811Z,32.3
2018-06-17T06:37:53.708Z,32.6
2018-06-17T06:38:43.221Z,33.4
2018-06-17T06:39:33.530Z,34.1
2018-06-17T06:40:23.593Z,34.3
2018-06-17T06:41:13.724Z,34.1
2018-06-17T06:42:03.985Z,34
2018-06-17T06:42:54.253Z,33.9
2018-06-17T06:43:44.137Z,33.9
2018-06-17T06:44:33.963Z,33.9
2018-06-17T06:45:23.190Z,33.9
2018-06-17T06:46:14.045Z,33.8
2018-06-17T06:47:04.146Z,33.7
2018-06-17T06:47:54.177Z,33.6
2018-06-17T06:48:44.221Z,33.5
2018-06-17T06:49:34.287Z,33.5
2018-06-17T06:50:24.107Z,33.4
2018-06-17T06:51:14.721Z,33.4
2018-06-17T06:52:03.709Z,33.4
2018-06-17T06:52:54.115Z,33.4
2018-06-17T06:53:44.385Z,33.4
2018-06-17T06:54:34.720Z,33.4
2018-06-17T06:55:24.223Z,33.5
2018-06-17T06:56:14.265Z,33.6
2018-06-17T06:57:05.209Z,33.8
2018-06-17T06:57:54.976Z,33.9
2018-06-17T06:58:45.073Z,34
2018-06-17T06:59:34.239Z,34
2018-06-17T07:00:24.297Z,34.2
2018-06-17T07:01:14.957Z,34.8
2018-06-17T07:02:04.810Z,35.4
2018-06-17T07:02:55.055Z,36.2
2018-06-17T07:03:44.267Z,36.8
2018-06-17T07:04:35.436Z,37.3
2018-06-17T07:05:25.595Z,37.6
2018-06-17T07:06:14.737Z,37.8
2018-06-17T07:07:05.664Z,38.1
2018-06-17T07:07:55.393Z,38.3
2018-06-17T07:08:45.792Z,38.6
2018-06-17T07:09:35.541Z,38.9
2018-06-17T07:10:25.607Z,39.2
2018-06-17T07:11:15.382Z,39.4
2018-06-17T07:12:06.320Z,39.7
2018-06-17T07:12:56.057Z,39.9
2018-06-17T07:13:45.307Z,40.1
2018-06-17T07:14:36.442Z,40.3
2018-06-17T07:15:25.985Z,40.5
2018-06-17T07:16:16.187Z,40.8
2018-06-17T07:17:06.429Z,41
2018-06-17T07:17:55.887Z,41.2
2018-06-17T07:18:46.792Z,41.3
2018-06-17T07:19:36.865Z,41.4
2018-06-17T07:20:26.615Z,41.6
2018-06-17T07:21:16.776Z,41.9
2018-06-17T07:22:06.334Z,42.1
2018-06-17T07:22:56.617Z,42.3
2018-06-17T07:23:46.896Z,42.4
2018-06-17T07:24:36.943Z,42.6
2018-06-17T07:25:26.781Z,42.7
2018-06-17T07:26:16.778Z,42.7
2018-06-17T07:27:06.341Z,42.8
2018-06-17T07:27:56.970Z,42.8
2018-06-17T07:28:47.217Z,42.5
2018-06-17T07:29:37.079Z,42.2
2018-06-17T07:30:27.387Z,42
2018-06-17T07:31:17.452Z,41.8
2018-06-17T07:32:07.603Z,41.9
2018-06-17T07:32:57.287Z,42.6
2018-06-17T07:33:47.764Z,43.4
2018-06-17T07:34:37.756Z,43.9
2018-06-17T07:35:27.251Z,43.9
2018-06-17T07:36:17.599Z,44.1
2018-06-17T07:37:08.321Z,44.5
2018-06-17T07:37:58.008Z,45
2018-06-17T07:38:48.055Z,45.3
2018-06-17T07:39:37.270Z,45.6
2018-06-17T07:40:28.217Z,45.9
2018-06-17T07:41:18.210Z,45.9
2018-06-17T07:42:07.179Z,45.9
2018-06-17T07:42:58.658Z,46
2018-06-17T07:43:48.963Z,46.3
2018-06-17T07:44:38.817Z,46.7
2018-06-17T07:45:28.277Z,46.8
2018-06-17T07:46:18.315Z,46.6
2018-06-17T07:47:08.708Z,46.4
2018-06-17T07:47:57.620Z,46.5
2018-06-17T07:48:48.805Z,46.8
2018-06-17T07:49:38.616Z,46.6
2018-06-17T07:50:28.613Z,46.1
2018-06-17T07:51:18.452Z,45.8
2018-06-17T07:52:08.825Z,45.4
2018-06-17T07:52:59.097Z,45.3
2018-06-17T07:53:49.190Z,45.6
2018-06-17T07:54:39.233Z,46.3
2018-06-17T07:55:29.363Z,46.9
2018-06-17T07:56:18.573Z,47.4
2018-06-17T07:57:09.791Z,47.4
2018-06-17T07:57:59.558Z,46.9
2018-06-17T07:58:49.587Z,46.4
2018-06-17T07:59:38.798Z,46.4
2018-06-17T08:00:29.929Z,47.1
2018-06-17T08:01:20.034Z,47.9
2018-06-17T08:02:09.851Z,48.5
2018-06-17T08:02:59.353Z,48.9
2018-06-17T08:03:50.217Z,49.2
2018-06-17T08:04:40.438Z,49.4
2018-06-17T08:05:30.053Z,49.6
2018-06-17T08:06:20.110Z,49.8
2018-06-17T08:07:10.226Z,50
2018-06-17T08:08:00.522Z,50.2
2018-06-17T08:08:50.635Z,50.4
2018-06-17T08:09:40.669Z,50.6
2018-06-17T08:10:30.704Z,50.8
2018-06-17T08:11:20.253Z,50.9
2018-06-17T08:12:10.582Z,51.1
2018-06-17T08:13:00.927Z,51.2
2018-06-17T08:13:50.957Z,51.3
2018-06-17T08:14:41.059Z,51.5
2018-06-17T08:15:30.807Z,51.6
2018-06-17T08:16:21.183Z,51.8
2018-06-17T08:18:00.481Z,52.1
2018-06-17T08:18:51.368Z,52.3
2018-06-17T08:20:30.929Z,52.6
2018-06-17T08:21:21.577Z,52.7
2018-06-17T08:22:10.516Z,52.8
2018-06-17T08:23:01.462Z,53
2018-06-17T08:23:51.496Z,53.1
2018-06-17T08:24:41.836Z,53.3
2018-06-17T08:25:31.323Z,53.4
2018-06-17T08:26:21.670Z,53.6
2018-06-17T08:27:11.697Z,53.7
2018-06-17T08:28:02.048Z,53.8
2018-06-17T08:28:51.307Z,53.9
2018-06-17T08:29:41.899Z,54.1
2018-06-17T08:30:32.737Z,54.3
2018-06-17T08:31:21.766Z,54.6
2018-06-17T08:32:11.565Z,54.8
2018-06-17T08:33:02.430Z,54.9
2018-06-17T08:33:52.235Z,55.1
2018-06-17T08:34:41.732Z,55.1
2018-06-17T08:35:32.670Z,55.2
2018-06-17T08:36:22.751Z,55.3
2018-06-17T08:37:12.251Z,55.4
2018-06-17T08:38:02.609Z,55.4
2018-06-17T08:38:51.774Z,55.6
2018-06-17T08:39:42.132Z,55.6
2018-06-17T08:40:32.253Z,55.7
2018-06-17T08:41:22.805Z,55.8
2018-06-17T08:42:12.328Z,55.8
2018-06-17T08:43:02.962Z,55.9
2018-06-17T08:43:52.235Z,55.9
2018-06-17T08:44:43.381Z,56
2018-06-17T08:45:31.853Z,56.1
2018-06-17T08:46:23.241Z,56.1
2018-06-17T08:47:13.559Z,56.3
2018-06-17T08:48:03.603Z,56.3
2018-06-17T08:48:53.181Z,56.4
2018-06-17T08:49:43.482Z,56.5
2018-06-17T08:50:33.217Z,56.6
2018-06-17T08:51:23.284Z,56.8
2018-06-17T08:52:13.658Z,56.8
2018-06-17T08:53:04.002Z,57
2018-06-17T08:53:53.467Z,57.1
2018-06-17T08:54:43.807Z,57.2
2018-06-17T08:55:34.153Z,57.3
2018-06-17T08:56:23.445Z,57.4
2018-06-17T08:57:13.471Z,57.6
2018-06-17T08:58:53.362Z,57.8
2018-06-17T08:59:43.925Z,57.9
2018-06-17T09:00:33.210Z,58.1
2018-06-17T09:01:24.329Z,58.2
2018-06-17T09:02:14.687Z,58.3
2018-06-17T09:03:04.782Z,58.4
2018-06-17T09:03:54.925Z,58.5
2018-06-17T09:05:34.405Z,58.6
2018-06-17T09:06:24.422Z,58.8
2018-06-17T09:07:14.489Z,58.8
2018-06-17T09:08:04.374Z,58.8
2018-06-17T09:08:54.926Z,58.9
2018-06-17T09:09:44.996Z,58.9
2018-06-17T09:10:34.778Z,59.1
2018-06-17T09:11:24.567Z,59.1
2018-06-17T09:12:15.251Z,59.2
2018-06-17T09:13:04.974Z,59.3
2018-06-17T09:13:55.559Z,59.3
2018-06-17T09:14:45.630Z,59.4
2018-06-17T09:15:35.689Z,59.4
2018-06-17T09:16:24.468Z,59.5
2018-06-17T09:17:15.575Z,59.6
2018-06-17T09:18:05.918Z,59.5
2018-06-17T09:18:55.676Z,58.9
2018-06-17T09:19:45.888Z,58
2018-06-17T09:20:35.728Z,57.3
2018-06-17T09:21:25.600Z,56.6
2018-06-17T09:22:15.708Z,56.1
2018-06-17T09:23:06.007Z,55.9
2018-06-17T09:23:55.571Z,56.6
2018-06-17T09:24:46.133Z,57.5
2018-06-17T09:25:36.516Z,58.1
2018-06-17T09:26:25.984Z,58.3
2018-06-17T09:27:16.330Z,58.8
2018-06-17T09:28:06.439Z,59.1
2018-06-17T09:28:55.977Z,59.4
2018-06-17T09:29:46.789Z,59.7
2018-06-17T09:30:36.304Z,59.9
2018-06-17T09:31:26.948Z,60.1
2018-06-17T09:32:17.877Z,60.3
2018-06-17T09:33:06.572Z,60.4
2018-06-17T09:33:56.052Z,60.6
2018-06-17T09:34:46.908Z,60.7
2018-06-17T09:35:37.016Z,60.8
2018-06-17T09:36:26.218Z,60.9
2018-06-17T09:37:17.383Z,61.1
2018-06-17T09:38:07.314Z,61.2
2018-06-17T09:38:57.078Z,61.3
2018-06-17T09:39:46.998Z,61.4
2018-06-17T09:40:37.091Z,61.6
2018-06-17T09:41:27.196Z,61.7
2018-06-17T09:42:17.198Z,61.7
2018-06-17T09:43:07.535Z,61.2
2018-06-17T09:43:56.778Z,60.3
2018-06-17T09:44:47.679Z,60.1
2018-06-17T09:45:36.928Z,60.4
2018-06-17T09:46:27.882Z,60.2
2018-06-17T09:47:17.866Z,59.4
2018-06-17T09:48:58.036Z,58.7
2018-06-17T09:49:47.804Z,59.6
2018-06-17T09:50:38.364Z,60.5
2018-06-17T09:51:28.460Z,61.2
2018-06-17T09:52:18.587Z,61.5
2018-06-17T09:53:07.367Z,61.6
2018-06-17T09:53:57.840Z,61.3
2018-06-17T09:54:48.770Z,60.3
2018-06-17T09:55:38.541Z,59
2018-06-17T09:56:28.337Z,58.3
2018-06-17T09:57:18.409Z,58.7
2018-06-17T09:58:08.996Z,59.8
2018-06-17T09:58:58.767Z,60.8
2018-06-17T09:59:49.190Z,61.4
2018-06-17T10:00:38.934Z,61.6
2018-06-17T10:01:29.332Z,61.8
2018-06-17T10:02:18.481Z,61.9
2018-06-17T10:03:09.116Z,62.1
2018-06-17T10:03:58.417Z,62.3
2018-06-17T10:04:49.028Z,62.6
2018-06-17T10:05:39.286Z,62.8
2018-06-17T10:06:28.361Z,63
2018-06-17T10:07:19.741Z,63.1
2018-06-17T10:08:08.908Z,63.3
2018-06-17T10:08:59.470Z,63.3
2018-06-17T10:09:49.132Z,63.4
2018-06-17T10:10:39.971Z,63.6
2018-06-17T10:11:29.775Z,63.7
2018-06-17T10:12:20.053Z,63.8
2018-06-17T10:13:09.610Z,63.6
2018-06-17T10:13:59.933Z,63.6
2018-06-17T10:14:50.086Z,63.8
2018-06-17T10:15:39.745Z,64
2018-06-17T10:16:30.130Z,64
2018-06-17T10:17:20.492Z,63.4
2018-06-17T10:18:10.238Z,62.4
2018-06-17T10:18:59.792Z,62.4
2018-06-17T10:19:50.382Z,63
2018-06-17T10:20:40.759Z,63.7
2018-06-17T10:21:30.760Z,63.9
2018-06-17T10:22:20.835Z,64
2018-06-17T10:23:10.953Z,63.8
2018-06-17T10:24:00.432Z,62.9
2018-06-17T10:24:51.046Z,62
2018-06-17T10:25:40.561Z,61.2
2018-06-17T10:26:30.638Z,60.6
2018-06-17T10:27:20.751Z,60.3
2018-06-17T10:28:10.737Z,60.2
2018-06-17T10:29:00.590Z,60.1
2018-06-17T10:29:51.440Z,59.8
2018-06-17T10:30:41.275Z,59.4
2018-06-17T10:31:30.737Z,59.2
2018-06-17T10:32:21.115Z,59.4
2018-06-17T10:33:11.395Z,59.2
2018-06-17T10:34:00.717Z,58.8
2018-06-17T10:34:51.304Z,58.3
2018-06-17T10:35:41.350Z,57.8
2018-06-17T10:36:31.716Z,57.5
2018-06-17T10:37:21.262Z,57.3
2018-06-17T10:38:12.164Z,57
2018-06-17T10:39:01.614Z,56.8
2018-06-17T10:39:51.951Z,56.6
2018-06-17T10:40:41.434Z,56.4
2018-06-17T10:41:32.079Z,56.2
2018-06-17T10:42:22.408Z,56
2018-06-17T10:43:11.574Z,55.8
2018-06-17T10:44:01.941Z,55.8
2018-06-17T10:44:52.299Z,55.6
2018-06-17T10:45:42.387Z,55.5
2018-06-17T10:46:32.698Z,55.4
2018-06-17T10:47:21.879Z,55.3
2018-06-17T10:48:12.265Z,55.1
2018-06-17T10:49:02.887Z,55.1
2018-06-17T10:49:52.468Z,54.9
2018-06-17T10:50:42.687Z,54.8
2018-06-17T10:51:33.124Z,54.8
2018-06-17T10:52:22.616Z,54.6
2018-06-17T10:53:13.288Z,54.6
2018-06-17T10:54:03.271Z,54.4
2018-06-17T10:54:53.112Z,54.4
2018-06-17T10:55:44.763Z,54.3
2018-06-17T10:56:33.498Z,54.1
2018-06-17T10:57:23.032Z,54
2018-06-17T10:58:12.822Z,53.9
2018-06-17T10:59:02.603Z,53.8
2018-06-17T10:59:53.751Z,53.7
2018-06-17T11:00:43.760Z,53.6
2018-06-17T11:01:32.767Z,53.5
2018-06-17T11:02:23.217Z,53.4
2018-06-17T11:03:13.208Z,53.3
2018-06-17T11:04:04.058Z,53.3
2018-06-17T11:04:53.849Z,53.2
2018-06-17T11:05:45.769Z,53.1
2018-06-17T11:06:33.977Z,53.1
2018-06-17T11:07:24.302Z,53
2018-06-17T11:08:14.418Z,52.9
2018-06-17T11:09:04.486Z,52.9
2018-06-17T11:09:54.022Z,52.8
2018-06-17T11:10:44.319Z,52.8
2018-06-17T11:11:34.084Z,52.8
2018-06-17T11:12:24.451Z,52.7
2018-06-17T11:13:14.525Z,52.6
2018-06-17T11:14:04.306Z,52.6
2018-06-17T11:14:54.910Z,52.5
2018-06-17T11:15:44.692Z,52.5
2018-06-17T11:16:33.917Z,52.4
2018-06-17T11:20:44.819Z,52.3
2018-06-17T11:21:35.126Z,52.3
2018-06-17T11:22:25.510Z,52.3
2018-06-17T11:23:14.833Z,52.3
2018-06-17T11:24:04.617Z,52.3
2018-06-17T11:24:54.858Z,52.2
2018-06-17T11:25:45.166Z,52.1
2018-06-17T11:26:35.436Z,52.1
2018-06-17T11:27:25.306Z,52.1
2018-06-17T11:28:15.653Z,52
2018-06-17T11:29:55.481Z,51.9
2018-06-17T11:30:46.095Z,51.9
2018-06-17T11:31:36.154Z,51.8
2018-06-17T11:32:25.238Z,51.8
2018-06-17T11:33:15.499Z,51.7
2018-06-17T11:34:05.554Z,51.7
2018-06-17T11:34:56.140Z,51.6
2018-06-17T11:35:46.540Z,51.6
2018-06-17T11:36:36.621Z,51.6
2018-06-17T11:37:26.063Z,51.5
2018-06-17T11:38:16.123Z,51.4
2018-06-17T11:39:08.378Z,51.4
2018-06-17T11:39:56.612Z,51.4
2018-06-17T11:40:46.854Z,51.4
2018-06-17T11:41:36.451Z,51.3
2018-06-17T11:42:26.230Z,51.3
2018-06-17T11:43:16.808Z,51.3
2018-06-17T11:44:07.198Z,51.2
2018-06-17T11:44:56.680Z,51.1
2018-06-17T11:45:47.088Z,51.1
2018-06-17T11:46:36.574Z,51.1
2018-06-17T11:47:26.615Z,51
2018-06-17T11:48:17.191Z,50.9
2018-06-17T11:49:06.688Z,50.9
2018-06-17T11:49:56.820Z,50.8
2018-06-17T11:50:47.377Z,50.8
2018-06-17T11:51:37.145Z,50.8
2018-06-17T11:52:26.967Z,50.8
2018-06-17T11:53:17.002Z,50.8
2018-06-17T11:54:07.637Z,50.8
2018-06-17T11:54:57.466Z,50.8
2018-06-17T11:55:47.485Z,50.8
2018-06-17T11:56:37.534Z,50.8
2018-06-17T11:57:27.607Z,50.8
2018-06-17T11:58:17.716Z,50.8
2018-06-17T11:59:07.837Z,50.8
2018-06-17T11:59:58.143Z,50.8
2018-06-17T12:00:48.442Z,50.8
2018-06-17T12:01:38.530Z,50.8
2018-06-17T12:02:28.553Z,50.8
2018-06-17T12:03:18.050Z,50.8
2018-06-17T12:04:08.113Z,50.8
2018-06-17T12:04:58.154Z,50.8
2018-06-17T12:05:48.799Z,50.8
2018-06-17T12:06:38.880Z,50.8
2018-06-17T12:07:28.951Z,50.7
2018-06-17T12:08:19.007Z,50.7
2018-06-17T12:09:08.246Z,50.6
2018-06-17T12:09:58.884Z,50.6
2018-06-17T12:10:49.194Z,50.7
2018-06-17T12:11:39.219Z,50.9
2018-06-17T12:12:29.293Z,51.1
2018-06-17T12:13:19.379Z,51.2
2018-06-17T12:14:09.440Z,51.2
2018-06-17T12:14:58.976Z,51.1
2018-06-17T12:15:49.559Z,51.1
2018-06-17T12:16:39.084Z,51
2018-06-17T12:17:29.426Z,50.9
2018-06-17T12:18:19.788Z,50.9
2018-06-17T12:19:09.800Z,50.9
2018-06-17T12:19:59.681Z,50.8
2018-06-17T12:20:49.946Z,50.8
2018-06-17T12:21:39.751Z,50.7
2018-06-17T12:22:30.088Z,50.6
2018-06-17T12:23:19.888Z,50.6
2018-06-17T12:24:09.470Z,50.6
2018-06-17T12:24:59.790Z,50.6
2018-06-17T12:25:50.365Z,50.7
2018-06-17T12:26:40.141Z,50.9
2018-06-17T12:27:29.970Z,51.3
2018-06-17T12:28:20.254Z,51.8
2018-06-17T12:29:10.027Z,52.3
2018-06-17T12:30:00.108Z,52.9
2018-06-17T12:30:50.360Z,53.5
2018-06-17T12:31:40.759Z,53.9
2018-06-17T12:32:30.601Z,54.2
2018-06-17T12:33:20.377Z,54.4
